Brownwood, TX

12:36 AM CDT on August 29, 2016 (GMT -0500)
HWY 377 RR/Overpass | | Change Station

Elev 1375 ft 31.71 °N, 98.99 °W | Updated 11 minutes ago

Mostly Cloudy
Mostly Cloudy
73.4 °F
Feels Like 73 °F
N
0.0
Wind Variable Wind from West

Today
High -- | Low -- °F
--% Chance of Precip.
Yesterday
High -- | Low -- °F
Precip. -- in
Pressure 30.07 in
Visibility 10.0 miles
Clouds Mostly Cloudy 3100 ft
Heat Index 73 °F
Dew Point 68 °F
Humidity 84%
Rainfall 0.00 in
Snow Depth Not available.
7:09 AM 8:02 PM
Waning Crescent, 11% visible
METAR KBWD 290515Z AUTO 33003KT 10SM BKN031 22/20 A3007 RMK AO2
Pressure 30.07 in
Visibility 10.0 miles
Clouds Mostly Cloudy 3100 ft
Heat Index 73 °F
Dew Point 68 °F
Humidity 84%
Rainfall 0.00 in
Snow Depth Not available.
7:09 AM 8:02 PM
Waning Crescent, 11% visible
METAR KBWD 290515Z AUTO 33003KT 10SM BKN031 22/20 A3007 RMK AO2

10-Day Weather Forecast

Almanac

Astronomy

Aug. 29, 2016 Rise Set
Actual Time
Civil Twilight
Nautical Twilight
Astronomical Twilight
Moon
Length of Visible Light
Length of Day
Tomorrow will be .
, % of the Moon is Illuminated

Today's Extremes

State Highs State Lows

Community

WunderPhotos

Upload Photos

1,935,800 photos uploaded!

WunderBlog® & News

Nearby

Air Quality

  Air Quality AQ Index Pollutant
Not available.

Snow Depth

Station Depth Elevation

Earthquake Activity

City Distance Mag. Time & Date
Minimum magnitude displayed is 2.5.

Coastal Water Temperatures

Place Temperature

Stations

Nearby Weather Stations

Station Location Temp. Windchill Dew Point Humidity Wind Precip. Elev Updated Type
                   

Watches & Warnings

There are currently no watches in effect.